sensor_id;sensor_type;location;lat;lon;timestamp;pressure;altitude;pressure_sealevel;temperature;humidity
39769;BME280;38939;47.824;14.642;2022-07-05T00:00:10;96979.47;;;19.63;87.12
39769;BME280;38939;47.824;14.642;2022-07-05T00:01:12;96980.78;;;19.61;87.13
39769;BME280;38939;47.824;14.642;2022-07-05T00:02:14;96978.41;;;19.59;87.14
39769;BME280;38939;47.824;14.642;2022-07-05T00:03:16;96978.41;;;19.59;87.17
39769;BME280;38939;47.824;14.642;2022-07-05T00:04:18;96974.97;;;19.58;87.12
39769;BME280;38939;47.824;14.642;2022-07-05T00:05:20;96968.63;;;19.59;86.71
39769;BME280;38939;47.824;14.642;2022-07-05T00:06:22;96978.94;;;19.61;86.44
39769;BME280;38939;47.824;14.642;2022-07-05T00:07:24;96974.19;;;19.63;86.46
39769;BME280;38939;47.824;14.642;2022-07-05T00:08:27;96979.47;;;19.63;86.08
39769;BME280;38939;47.824;14.642;2022-07-05T00:09:29;96983.19;;;19.62;85.95
39769;BME280;38939;47.824;14.642;2022-07-05T00:10:34;96977.88;;;19.62;85.82
39769;BME280;38939;47.824;14.642;2022-07-05T00:11:36;96981.84;;;19.59;85.66
39769;BME280;38939;47.824;14.642;2022-07-05T00:12:38;96983.19;;;19.62;85.81
39769;BME280;38939;47.824;14.642;2022-07-05T00:13:40;96985.84;;;19.62;85.95
39769;BME280;38939;47.824;14.642;2022-07-05T00:14:42;96987.94;;;19.65;85.90
39769;BME280;38939;47.824;14.642;2022-07-05T00:15:45;96986.13;;;19.66;85.93
39769;BME280;38939;47.824;14.642;2022-07-05T00:16:47;96978.44;;;19.64;85.83
39769;BME280;38939;47.824;14.642;2022-07-05T00:17:50;96981.06;;;19.64;86.23
39769;BME280;38939;47.824;14.642;2022-07-05T00:18:52;96986.88;;;19.61;86.79
39769;BME280;38939;47.824;14.642;2022-07-05T00:19:54;96984.75;;;19.63;86.65
39769;BME280;38939;47.824;14.642;2022-07-05T00:20:56;96982.41;;;19.62;86.78
39769;BME280;38939;47.824;14.642;2022-07-05T00:21:58;96979.47;;;19.63;86.78
39769;BME280;38939;47.824;14.642;2022-07-05T00:23:00;96985.84;;;19.62;87.00
39769;BME280;38939;47.824;14.642;2022-07-05T00:24:02;96983.69;;;19.59;87.27
39769;BME280;38939;47.824;14.642;2022-07-05T00:25:04;96991.63;;;19.54;87.42
39769;BME280;38939;47.824;14.642;2022-07-05T00:26:06;96995.84;;;19.55;87.24
39769;BME280;38939;47.824;14.642;2022-07-05T00:27:08;96996.91;;;19.54;87.05
39769;BME280;38939;47.824;14.642;2022-07-05T00:28:10;96996.91;;;19.54;86.89
39769;BME280;38939;47.824;14.642;2022-07-05T00:29:12;97005.09;;;19.52;86.74
39769;BME280;38939;47.824;14.642;2022-07-05T00:30:14;97005.88;;;19.53;86.76
39769;BME280;38939;47.824;14.642;2022-07-05T00:31:16;97010.94;;;19.54;86.49
39769;BME280;38939;47.824;14.642;2022-07-05T00:32:18;97000.34;;;19.54;86.50
39769;BME280;38939;47.824;14.642;2022-07-05T00:33:20;97011.47;;;19.56;86.43
39769;BME280;38939;47.824;14.642;2022-07-05T00:34:21;97004.59;;;19.55;86.51
39769;BME280;38939;47.824;14.642;2022-07-05T00:35:23;97012.00;;;19.53;86.41
39769;BME280;38939;47.824;14.642;2022-07-05T00:36:27;97006.97;;;19.52;86.33
39769;BME280;38939;47.824;14.642;2022-07-05T00:37:33;97010.41;;;19.52;86.56
39769;BME280;38939;47.824;14.642;2022-07-05T00:38:35;97004.84;;;19.54;86.64
39769;BME280;38939;47.824;14.642;2022-07-05T00:39:37;97003.00;;;19.54;86.71
39769;BME280;38939;47.824;14.642;2022-07-05T00:40:39;97002.22;;;19.54;86.66
39769;BME280;38939;47.824;14.642;2022-07-05T00:41:41;96998.50;;;19.55;86.73
39769;BME280;38939;47.824;14.642;2022-07-05T00:42:43;97000.09;;;19.56;86.69
39769;BME280;38939;47.824;14.642;2022-07-05T00:43:52;97000.34;;;19.54;86.93
39769;BME280;38939;47.824;14.642;2022-07-05T00:44:54;97004.84;;;19.54;86.99
39769;BME280;38939;47.824;14.642;2022-07-05T00:45:56;97006.72;;;19.53;87.16
39769;BME280;38939;47.824;14.642;2022-07-05T00:46:58;97008.28;;;19.54;87.11
39769;BME280;38939;47.824;14.642;2022-07-05T00:48:00;97015.97;;;19.56;87.14
39769;BME280;38939;47.824;14.642;2022-07-05T00:49:03;97016.47;;;19.53;86.83
39769;BME280;38939;47.824;14.642;2022-07-05T00:50:05;97030.25;;;19.50;87.45
39769;BME280;38939;47.824;14.642;2022-07-05T00:51:07;97022.56;;;19.48;88.03
39769;BME280;38939;47.824;14.642;2022-07-05T00:52:11;97016.72;;;19.46;87.92
39769;BME280;38939;47.824;14.642;2022-07-05T00:53:21;97033.38;;;19.47;87.94
39769;BME280;38939;47.824;14.642;2022-07-05T00:54:23;97031.28;;;19.49;87.59
39769;BME280;38939;47.824;14.642;2022-07-05T00:55:25;97031.81;;;19.51;87.48
39769;BME280;38939;47.824;14.642;2022-07-05T00:56:27;97033.94;;;19.49;87.58
39769;BME280;38939;47.824;14.642;2022-07-05T00:57:29;97035.00;;;19.48;87.47
39769;BME280;38939;47.824;14.642;2022-07-05T00:58:32;97040.28;;;19.48;87.30
39769;BME280;38939;47.824;14.642;2022-07-05T00:59:34;97035.00;;;19.48;87.36
39769;BME280;38939;47.824;14.642;2022-07-05T01:00:36;97038.19;;;19.50;87.31
39769;BME280;38939;47.824;14.642;2022-07-05T01:01:38;97046.66;;;19.52;87.35
39769;BME280;38939;47.824;14.642;2022-07-05T01:02:40;97044.56;;;19.54;87.15
39769;BME280;38939;47.824;14.642;2022-07-05T01:03:43;97041.13;;;19.53;87.18
39769;BME280;38939;47.824;14.642;2022-07-05T01:04:46;97031.88;;;19.56;87.17
39769;BME280;38939;47.824;14.642;2022-07-05T01:05:49;97039.81;;;19.56;87.00
39769;BME280;38939;47.824;14.642;2022-07-05T01:06:51;97041.91;;;19.54;86.85
39769;BME280;38939;47.824;14.642;2022-07-05T01:07:53;97045.59;;;19.53;86.76
39769;BME280;38939;47.824;14.642;2022-07-05T01:08:56;97054.34;;;19.53;86.62
39769;BME280;38939;47.824;14.642;2022-07-05T01:09:58;97053.53;;;19.53;86.56
39769;BME280;38939;47.824;14.642;2022-07-05T01:11:00;97049.31;;;19.52;86.74
39769;BME280;38939;47.824;14.642;2022-07-05T01:12:02;97052.75;;;19.52;86.74
39769;BME280;38939;47.824;14.642;2022-07-05T01:13:04;97046.41;;;19.53;86.73
39769;BME280;38939;47.824;14.642;2022-07-05T01:14:06;97047.44;;;19.52;86.88
39769;BME280;38939;47.824;14.642;2022-07-05T01:15:12;97048.25;;;19.53;86.87
39769;BME280;38939;47.824;14.642;2022-07-05T01:16:14;97049.06;;;19.53;86.70
39769;BME280;38939;47.824;14.642;2022-07-05T01:17:16;97052.75;;;19.52;86.73
39769;BME280;38939;47.824;14.642;2022-07-05T01:18:21;97051.97;;;19.52;86.93
39769;BME280;38939;47.824;14.642;2022-07-05T01:19:23;97054.84;;;19.50;87.12
39769;BME280;38939;47.824;14.642;2022-07-05T01:20:25;97049.81;;;19.49;86.94
39769;BME280;38939;47.824;14.642;2022-07-05T01:21:27;97049.81;;;19.49;86.84
39769;BME280;38939;47.824;14.642;2022-07-05T01:22:48;97045.59;;;19.48;86.96
39769;BME280;38939;47.824;14.642;2022-07-05T01:23:51;97046.63;;;19.47;87.06
39769;BME280;38939;47.824;14.642;2022-07-05T01:24:53;97046.06;;;19.45;87.02
39769;BME280;38939;47.824;14.642;2022-07-05T01:25:56;97045.28;;;19.44;87.00
39769;BME280;38939;47.824;14.642;2022-07-05T01:26:58;97038.97;;;19.45;87.03
39769;BME280;38939;47.824;14.642;2022-07-05T01:28:00;97043.97;;;19.47;87.24
39769;BME280;38939;47.824;14.642;2022-07-05T01:29:04;97043.44;;;19.45;87.38
39769;BME280;38939;47.824;14.642;2022-07-05T01:30:06;97033.91;;;19.44;87.38
39769;BME280;38939;47.824;14.642;2022-07-05T01:31:08;97038.66;;;19.42;87.31
39769;BME280;38939;47.824;14.642;2022-07-05T01:32:11;97041.56;;;19.40;87.28
39769;BME280;38939;47.824;14.642;2022-07-05T01:33:13;97038.91;;;19.40;87.24
39769;BME280;38939;47.824;14.642;2022-07-05T01:34:15;97040.75;;;19.39;87.26
39769;BME280;38939;47.824;14.642;2022-07-05T01:35:18;97040.75;;;19.39;87.55
39769;BME280;38939;47.824;14.642;2022-07-05T01:36:22;97040.22;;;19.37;87.55
39769;BME280;38939;47.824;14.642;2022-07-05T01:37:24;97037.03;;;19.35;87.59
39769;BME280;38939;47.824;14.642;2022-07-05T01:38:26;97033.31;;;19.36;87.63
39769;BME280;38939;47.824;14.642;2022-07-05T01:39:28;97030.69;;;19.36;87.55
39769;BME280;38939;47.824;14.642;2022-07-05T01:40:30;97032.03;;;19.39;87.53
39769;BME280;38939;47.824;14.642;2022-07-05T01:41:34;97032.59;;;19.41;87.83
39769;BME280;38939;47.824;14.642;2022-07-05T01:42:36;97027.81;;;19.43;87.94
39769;BME280;38939;47.824;14.642;2022-07-05T01:43:38;97030.19;;;19.45;87.90
39769;BME280;38939;47.824;14.642;2022-07-05T01:44:40;97025.44;;;19.47;87.87
39769;BME280;38939;47.824;14.642;2022-07-05T01:45:43;97037.41;;;19.49;87.86
39769;BME280;38939;47.824;14.642;2022-07-05T01:46:45;97034.75;;;19.49;87.81
39769;BME280;38939;47.824;14.642;2022-07-05T01:47:48;97031.28;;;19.49;87.70
39769;BME280;38939;47.824;14.642;2022-07-05T01:48:51;97035.00;;;19.48;87.64
39769;BME280;38939;47.824;14.642;2022-07-05T01:49:55;97028.38;;;19.50;87.79
39769;BME280;38939;47.824;14.642;2022-07-05T01:51:06;97036.06;;;19.52;87.72
39769;BME280;38939;47.824;14.642;2022-07-05T01:52:10;97027.06;;;19.53;87.67
39769;BME280;38939;47.824;14.642;2022-07-05T01:53:23;97032.63;;;19.51;87.87
39769;BME280;38939;47.824;14.642;2022-07-05T01:54:25;97028.69;;;19.54;87.80
39769;BME280;38939;47.824;14.642;2022-07-05T01:55:27;97039.25;;;19.54;87.83
39769;BME280;38939;47.824;14.642;2022-07-05T01:56:29;97033.97;;;19.54;87.80
39769;BME280;38939;47.824;14.642;2022-07-05T01:57:31;97035.53;;;19.55;87.79
39769;BME280;38939;47.824;14.642;2022-07-05T01:58:32;97040.06;;;19.54;87.95
39769;BME280;38939;47.824;14.642;2022-07-05T01:59:35;97043.25;;;19.56;88.03
39769;BME280;38939;47.824;14.642;2022-07-05T02:00:50;97050.38;;;19.56;88.00
39769;BME280;38939;47.824;14.642;2022-07-05T02:01:52;97050.34;;;19.51;88.43
39769;BME280;38939;47.824;14.642;2022-07-05T02:02:55;97041.06;;;19.48;88.31
39769;BME280;38939;47.824;14.642;2022-07-05T02:03:57;97040.78;;;19.45;88.23
39769;BME280;38939;47.824;14.642;2022-07-05T02:05:00;97046.06;;;19.39;88.44
39769;BME280;38939;47.824;14.642;2022-07-05T02:06:02;97037.56;;;19.37;88.51
39769;BME280;38939;47.824;14.642;2022-07-05T02:07:07;97033.84;;;19.33;88.76
39769;BME280;38939;47.824;14.642;2022-07-05T02:08:10;97037.00;;;19.30;89.18
39769;BME280;38939;47.824;14.642;2022-07-05T02:09:12;97035.94;;;19.31;88.46
39769;BME280;38939;47.824;14.642;2022-07-05T02:10:14;97025.38;;;19.31;88.68
39769;BME280;38939;47.824;14.642;2022-07-05T02:11:15;97032.25;;;19.32;88.32
39769;BME280;38939;47.824;14.642;2022-07-05T02:12:17;97032.00;;;19.34;88.52
39769;BME280;38939;47.824;14.642;2022-07-05T02:13:19;97041.25;;;19.36;88.43
39769;BME280;38939;47.824;14.642;2022-07-05T02:14:22;97044.72;;;19.37;88.28
39769;BME280;38939;47.824;14.642;2022-07-05T02:15:24;97035.97;;;19.36;88.25
39769;BME280;38939;47.824;14.642;2022-07-05T02:16:27;97049.19;;;19.36;88.24
39769;BME280;38939;47.824;14.642;2022-07-05T02:17:29;97041.25;;;19.36;88.42
39769;BME280;38939;47.824;14.642;2022-07-05T02:18:31;97049.19;;;19.36;88.27
39769;BME280;38939;47.824;14.642;2022-07-05T02:19:34;97050.56;;;19.39;88.35
39769;BME280;38939;47.824;14.642;2022-07-05T02:20:37;97048.72;;;19.39;88.24
39769;BME280;38939;47.824;14.642;2022-07-05T02:21:39;97051.09;;;19.41;88.28
39769;BME280;38939;47.824;14.642;2022-07-05T02:22:42;97048.19;;;19.43;88.27
39769;BME280;38939;47.824;14.642;2022-07-05T02:23:44;97045.28;;;19.44;88.27
39769;BME280;38939;47.824;14.642;2022-07-05T02:24:46;97044.25;;;19.45;88.20
39769;BME280;38939;47.824;14.642;2022-07-05T02:25:48;97043.19;;;19.46;88.32
39769;BME280;38939;47.824;14.642;2022-07-05T02:26:50;97046.91;;;19.45;88.55
39769;BME280;38939;47.824;14.642;2022-07-05T02:27:52;97043.41;;;19.39;88.70
39769;BME280;38939;47.824;14.642;2022-07-05T02:28:54;97052.94;;;19.41;88.67
39769;BME280;38939;47.824;14.642;2022-07-05T02:29:56;97057.97;;;19.42;88.55
39769;BME280;38939;47.824;14.642;2022-07-05T02:30:58;97047.16;;;19.44;88.44
39769;BME280;38939;47.824;14.642;2022-07-05T02:32:00;97043.44;;;19.45;88.34
39769;BME280;38939;47.824;14.642;2022-07-05T02:33:02;97040.53;;;19.46;88.36
39769;BME280;38939;47.824;14.642;2022-07-05T02:34:05;97046.06;;;19.45;88.67
39769;BME280;38939;47.824;14.642;2022-07-05T02:35:07;97035.72;;;19.38;89.00
39769;BME280;38939;47.824;14.642;2022-07-05T02:36:10;97034.63;;;19.34;89.34
39769;BME280;38939;47.824;14.642;2022-07-05T02:37:13;97033.03;;;19.33;88.92
39769;BME280;38939;47.824;14.642;2022-07-05T02:38:15;97033.03;;;19.33;88.66
39769;BME280;38939;47.824;14.642;2022-07-05T02:39:17;97032.25;;;19.32;88.60
39769;BME280;38939;47.824;14.642;2022-07-05T02:40:18;97030.13;;;19.34;88.74
39769;BME280;38939;47.824;14.642;2022-07-05T02:41:20;97030.91;;;19.35;88.50
39769;BME280;38939;47.824;14.642;2022-07-05T02:42:22;97030.13;;;19.34;88.79
39769;BME280;38939;47.824;14.642;2022-07-05T02:43:24;97030.38;;;19.33;89.17
39769;BME280;38939;47.824;14.642;2022-07-05T02:44:26;97025.09;;;19.33;89.10
39769;BME280;38939;47.824;14.642;2022-07-05T02:45:28;97020.63;;;19.33;89.08
39769;BME280;38939;47.824;14.642;2022-07-05T02:46:30;97026.94;;;19.32;89.62
39769;BME280;38939;47.824;14.642;2022-07-05T02:47:33;97029.03;;;19.30;89.44
39769;BME280;38939;47.824;14.642;2022-07-05T02:48:36;97017.69;;;19.30;89.40
39769;BME280;38939;47.824;14.642;2022-07-05T02:49:38;97022.19;;;19.29;89.17
39769;BME280;38939;47.824;14.642;2022-07-05T02:50:40;97022.69;;;19.26;89.81
39769;BME280;38939;47.824;14.642;2022-07-05T02:51:41;97025.84;;;19.23;90.16
39769;BME280;38939;47.824;14.642;2022-07-05T02:52:43;97021.59;;;19.22;90.34
39769;BME280;38939;47.824;14.642;2022-07-05T02:53:45;97016.81;;;19.19;90.23
39769;BME280;38939;47.824;14.642;2022-07-05T02:54:47;97022.38;;;19.23;89.71
39769;BME280;38939;47.824;14.642;2022-07-05T02:55:49;97023.19;;;19.23;89.45
39769;BME280;38939;47.824;14.642;2022-07-05T02:56:51;97024.53;;;19.26;89.38
39769;BME280;38939;47.824;14.642;2022-07-05T02:57:53;97027.97;;;19.26;89.50
39769;BME280;38939;47.824;14.642;2022-07-05T02:58:54;97031.41;;;19.27;89.83
39769;BME280;38939;47.824;14.642;2022-07-05T02:59:57;97022.69;;;19.26;90.08
39769;BME280;38939;47.824;14.642;2022-07-05T03:00:59;97022.69;;;19.26;89.93
39769;BME280;38939;47.824;14.642;2022-07-05T03:02:01;97026.38;;;19.25;89.67
39769;BME280;38939;47.824;14.642;2022-07-05T03:03:03;97032.22;;;19.27;89.57
39769;BME280;38939;47.824;14.642;2022-07-05T03:04:04;97024.78;;;19.24;90.40
39769;BME280;38939;47.824;14.642;2022-07-05T03:05:08;97026.88;;;19.22;90.23
39769;BME280;38939;47.824;14.642;2022-07-05T03:06:09;97026.09;;;19.22;89.79
39769;BME280;38939;47.824;14.642;2022-07-05T03:07:11;97023.69;;;19.20;89.86
39769;BME280;38939;47.824;14.642;2022-07-05T03:08:13;97025.31;;;19.21;90.02
39769;BME280;38939;47.824;14.642;2022-07-05T03:09:15;97024.22;;;19.22;89.79
39769;BME280;38939;47.824;14.642;2022-07-05T03:10:18;97022.38;;;19.23;89.70
39769;BME280;38939;47.824;14.642;2022-07-05T03:11:20;97024.78;;;19.24;89.68
39769;BME280;38939;47.824;14.642;2022-07-05T03:12:22;97029.03;;;19.25;89.83
39769;BME280;38939;47.824;14.642;2022-07-05T03:13:24;97028.75;;;19.27;89.63
39769;BME280;38939;47.824;14.642;2022-07-05T03:14:25;97033.78;;;19.28;89.72
39769;BME280;38939;47.824;14.642;2022-07-05T03:15:27;97034.34;;;19.30;89.42
39769;BME280;38939;47.824;14.642;2022-07-05T03:16:29;97045.72;;;19.31;89.58
39769;BME280;38939;47.824;14.642;2022-07-05T03:17:31;97035.13;;;19.31;89.54
39769;BME280;38939;47.824;14.642;2022-07-05T03:18:33;97040.69;;;19.29;89.76
39769;BME280;38939;47.824;14.642;2022-07-05T03:19:35;97045.44;;;19.27;90.18
39769;BME280;38939;47.824;14.642;2022-07-05T03:20:37;97044.91;;;19.25;90.54
39769;BME280;38939;47.824;14.642;2022-07-05T03:21:39;97048.84;;;19.23;90.43
39769;BME280;38939;47.824;14.642;2022-07-05T03:22:41;97050.94;;;19.21;90.83
39769;BME280;38939;47.824;14.642;2022-07-05T03:23:43;97052.78;;;19.20;90.27
39769;BME280;38939;47.824;14.642;2022-07-05T03:24:45;97051.75;;;19.21;90.14
39769;BME280;38939;47.824;14.642;2022-07-05T03:25:47;97047.00;;;19.23;89.81
39769;BME280;38939;47.824;14.642;2022-07-05T03:26:51;97040.91;;;19.23;89.57
39769;BME280;38939;47.824;14.642;2022-07-05T03:27:53;97047.00;;;19.23;89.58
39769;BME280;38939;47.824;14.642;2022-07-05T03:28:56;97048.59;;;19.24;89.45
39769;BME280;38939;47.824;14.642;2022-07-05T03:29:58;97045.94;;;19.24;89.51
39769;BME280;38939;47.824;14.642;2022-07-05T03:31:00;97048.59;;;19.24;89.36
39769;BME280;38939;47.824;14.642;2022-07-05T03:32:02;97045.69;;;19.26;89.33
39769;BME280;38939;47.824;14.642;2022-07-05T03:33:04;97050.75;;;19.27;89.44
39769;BME280;38939;47.824;14.642;2022-07-05T03:34:06;97043.34;;;19.29;89.36
39769;BME280;38939;47.824;14.642;2022-07-05T03:35:09;97052.88;;;19.30;89.58
39769;BME280;38939;47.824;14.642;2022-07-05T03:36:11;97048.63;;;19.29;89.68
39769;BME280;38939;47.824;14.642;2022-07-05T03:37:12;97053.09;;;19.29;89.94
39769;BME280;38939;47.824;14.642;2022-07-05T03:38:15;97054.72;;;19.30;89.84
39769;BME280;38939;47.824;14.642;2022-07-05T03:39:17;97055.50;;;19.30;89.65
39769;BME280;38939;47.824;14.642;2022-07-05T03:40:19;97057.13;;;19.31;89.61
39769;BME280;38939;47.824;14.642;2022-07-05T03:41:21;97060.31;;;19.33;89.54
39769;BME280;38939;47.824;14.642;2022-07-05T03:42:23;97053.41;;;19.32;89.63
39769;BME280;38939;47.824;14.642;2022-07-05T03:43:24;97056.59;;;19.34;89.67
39769;BME280;38939;47.824;14.642;2022-07-05T03:44:27;97060.84;;;19.35;89.55
39769;BME280;38939;47.824;14.642;2022-07-05T03:45:29;97061.88;;;19.34;89.64
39769;BME280;38939;47.824;14.642;2022-07-05T03:46:31;97067.97;;;19.35;89.98
39769;BME280;38939;47.824;14.642;2022-07-05T03:47:33;97057.91;;;19.32;90.28
39769;BME280;38939;47.824;14.642;2022-07-05T03:48:34;97064.78;;;19.33;90.09
39769;BME280;38939;47.824;14.642;2022-07-05T03:49:42;97060.31;;;19.33;89.99
39769;BME280;38939;47.824;14.642;2022-07-05T03:50:44;97064.00;;;19.32;90.03
39769;BME280;38939;47.824;14.642;2022-07-05T03:51:46;97064.00;;;19.32;89.78
39769;BME280;38939;47.824;14.642;2022-07-05T03:52:48;97066.38;;;19.34;89.70
39769;BME280;38939;47.824;14.642;2022-07-05T03:53:50;97068.25;;;19.33;89.66
39769;BME280;38939;47.824;14.642;2022-07-05T03:54:51;97073.25;;;19.35;89.61
39769;BME280;38939;47.824;14.642;2022-07-05T03:55:53;97064.28;;;19.36;89.53
39769;BME280;38939;47.824;14.642;2022-07-05T03:56:55;97071.19;;;19.37;89.45
39769;BME280;38939;47.824;14.642;2022-07-05T03:57:57;97066.16;;;19.35;89.44
39769;BME280;38939;47.824;14.642;2022-07-05T03:58:59;97067.97;;;19.35;89.49
39769;BME280;38939;47.824;14.642;2022-07-05T04:00:01;97069.03;;;19.34;89.63
39769;BME280;38939;47.824;14.642;2022-07-05T04:01:03;97066.38;;;19.34;89.64
39769;BME280;38939;47.824;14.642;2022-07-05T04:02:05;97070.91;;;19.33;89.50
39769;BME280;38939;47.824;14.642;2022-07-05T04:03:07;97072.72;;;19.33;89.37
39769;BME280;38939;47.824;14.642;2022-07-05T04:04:09;97073.00;;;19.31;89.75
39769;BME280;38939;47.824;14.642;2022-07-05T04:05:11;97071.38;;;19.30;89.76
39769;BME280;38939;47.824;14.642;2022-07-05T04:06:13;97074.56;;;19.32;90.00
39769;BME280;38939;47.824;14.642;2022-07-05T04:07:15;97079.38;;;19.35;89.98
39769;BME280;38939;47.824;14.642;2022-07-05T04:08:17;97083.34;;;19.38;90.18
39769;BME280;38939;47.824;14.642;2022-07-05T04:09:18;97079.91;;;19.37;90.01
39769;BME280;38939;47.824;14.642;2022-07-05T04:10:21;97086.78;;;19.38;89.97
39769;BME280;38939;47.824;14.642;2022-07-05T04:11:23;97082.56;;;19.37;90.00
39769;BME280;38939;47.824;14.642;2022-07-05T04:12:25;97087.34;;;19.41;90.17
39769;BME280;38939;47.824;14.642;2022-07-05T04:13:27;97086.53;;;19.40;90.16
39769;BME280;38939;47.824;14.642;2022-07-05T04:14:29;97087.34;;;19.41;90.46
39769;BME280;38939;47.824;14.642;2022-07-05T04:15:31;97091.84;;;19.40;90.68
39769;BME280;38939;47.824;14.642;2022-07-05T04:16:33;97092.38;;;19.37;90.67
39769;BME280;38939;47.824;14.642;2022-07-05T04:17:35;97097.38;;;19.38;90.46
39769;BME280;38939;47.824;14.642;2022-07-05T04:18:37;97099.47;;;19.36;90.70
39769;BME280;38939;47.824;14.642;2022-07-05T04:19:39;97102.38;;;19.35;90.80
39769;BME280;38939;47.824;14.642;2022-07-05T04:20:42;97095.25;;;19.35;90.56
39769;BME280;38939;47.824;14.642;2022-07-05T04:21:44;97100.31;;;19.37;90.51
39769;BME280;38939;47.824;14.642;2022-07-05T04:22:45;97100.31;;;19.37;90.65
39769;BME280;38939;47.824;14.642;2022-07-05T04:23:47;97106.38;;;19.37;90.73
39769;BME280;38939;47.824;14.642;2022-07-05T04:24:49;97101.88;;;19.38;90.56
39769;BME280;38939;47.824;14.642;2022-07-05T04:26:10;97094.72;;;19.38;90.68
39769;BME280;38939;47.824;14.642;2022-07-05T04:27:12;97098.44;;;19.37;90.88
39769;BME280;38939;47.824;14.642;2022-07-05T04:28:13;97098.44;;;19.37;90.75
39769;BME280;38939;47.824;14.642;2022-07-05T04:29:15;97103.72;;;19.37;90.72
39769;BME280;38939;47.824;14.642;2022-07-05T04:30:18;97102.66;;;19.38;90.78
39769;BME280;38939;47.824;14.642;2022-07-05T04:31:21;97097.38;;;19.38;91.01
39769;BME280;38939;47.824;14.642;2022-07-05T04:32:23;97089.97;;;19.35;91.17
39769;BME280;38939;47.824;14.642;2022-07-05T04:33:25;97092.59;;;19.35;90.96
39769;BME280;38939;47.824;14.642;2022-07-05T04:34:27;97109.53;;;19.34;90.91
39769;BME280;38939;47.824;14.642;2022-07-05T04:35:29;97101.81;;;19.33;90.84
39769;BME280;38939;47.824;14.642;2022-07-05T04:36:31;97099.47;;;19.31;90.79
39769;BME280;38939;47.824;14.642;2022-07-05T04:37:33;97104.75;;;19.31;90.68
39769;BME280;38939;47.824;14.642;2022-07-05T04:38:35;97099.19;;;19.33;90.69
39769;BME280;38939;47.824;14.642;2022-07-05T04:39:37;97103.94;;;19.31;91.15
39769;BME280;38939;47.824;14.642;2022-07-05T04:40:39;97097.84;;;19.30;91.41
39769;BME280;38939;47.824;14.642;2022-07-05T04:41:42;97102.34;;;19.30;91.47
39769;BME280;38939;47.824;14.642;2022-07-05T04:42:44;97101.00;;;19.27;91.48
39769;BME280;38939;47.824;14.642;2022-07-05T04:43:46;97105.25;;;19.28;91.30
39769;BME280;38939;47.824;14.642;2022-07-05T04:44:48;97108.66;;;19.29;91.25
39769;BME280;38939;47.824;14.642;2022-07-05T04:45:50;97110.03;;;19.31;91.11
39769;BME280;38939;47.824;14.642;2022-07-05T04:46:57;97109.22;;;19.31;90.94
39769;BME280;38939;47.824;14.642;2022-07-05T04:47:59;97113.72;;;19.30;90.96
39769;BME280;38939;47.824;14.642;2022-07-05T04:49:01;97120.63;;;19.31;91.06
39769;BME280;38939;47.824;14.642;2022-07-05T04:50:04;97116.66;;;19.34;91.14
39769;BME280;38939;47.824;14.642;2022-07-05T04:51:06;97113.22;;;19.33;91.07
39769;BME280;38939;47.824;14.642;2022-07-05T04:52:08;97111.38;;;19.34;90.89
39769;BME280;38939;47.824;14.642;2022-07-05T04:53:10;97110.06;;;19.36;91.06
39769;BME280;38939;47.824;14.642;2022-07-05T04:54:12;97116.97;;;19.37;90.77
39769;BME280;38939;47.824;14.642;2022-07-05T04:55:14;97114.56;;;19.36;90.82
39769;BME280;38939;47.824;14.642;2022-07-05T04:56:15;97124.91;;;19.37;90.81
39769;BME280;38939;47.824;14.642;2022-07-05T04:57:18;97121.47;;;19.37;91.03
39769;BME280;38939;47.824;14.642;2022-07-05T04:58:20;97127.78;;;19.36;90.83
39769;BME280;38939;47.824;14.642;2022-07-05T04:59:22;97123.28;;;19.36;91.02
39769;BME280;38939;47.824;14.642;2022-07-05T05:00:26;97123.50;;;19.30;91.30
39769;BME280;38939;47.824;14.642;2022-07-05T05:01:28;97122.41;;;19.26;91.38
39769;BME280;38939;47.824;14.642;2022-07-05T05:02:31;97120.81;;;19.25;91.46
39769;BME280;38939;47.824;14.642;2022-07-05T05:03:33;97126.09;;;19.25;91.50
39769;BME280;38939;47.824;14.642;2022-07-05T05:04:36;97126.94;;;19.25;91.42
39769;BME280;38939;47.824;14.642;2022-07-05T05:05:38;97126.94;;;19.25;91.54
39769;BME280;38939;47.824;14.642;2022-07-05T05:06:40;97131.16;;;19.26;91.27
39769;BME280;38939;47.824;14.642;2022-07-05T05:07:42;97129.84;;;19.29;91.25
39769;BME280;38939;47.824;14.642;2022-07-05T05:08:44;97135.13;;;19.29;91.17
39769;BME280;38939;47.824;14.642;2022-07-05T05:09:47;97134.09;;;19.30;90.96
39769;BME280;38939;47.824;14.642;2022-07-05T05:10:49;97138.31;;;19.31;90.92
39769;BME280;38939;47.824;14.642;2022-07-05T05:11:51;97137.53;;;19.30;90.73
39769;BME280;38939;47.824;14.642;2022-07-05T05:12:53;97139.16;;;19.31;90.51
39769;BME280;38939;47.824;14.642;2022-07-05T05:13:55;97140.47;;;19.34;90.44
39769;BME280;38939;47.824;14.642;2022-07-05T05:14:57;97143.38;;;19.32;90.36
39769;BME280;38939;47.824;14.642;2022-07-05T05:15:59;97143.38;;;19.32;90.26
39769;BME280;38939;47.824;14.642;2022-07-05T05:17:01;97147.88;;;19.32;90.36
39769;BME280;38939;47.824;14.642;2022-07-05T05:18:03;97142.59;;;19.32;90.35
39769;BME280;38939;47.824;14.642;2022-07-05T05:19:05;97143.38;;;19.32;90.51
39769;BME280;38939;47.824;14.642;2022-07-05T05:20:12;97144.97;;;19.33;90.32
39769;BME280;38939;47.824;14.642;2022-07-05T05:21:15;97142.59;;;19.32;90.34
39769;BME280;38939;47.824;14.642;2022-07-05T05:22:17;97144.44;;;19.31;90.48
39769;BME280;38939;47.824;14.642;2022-07-05T05:23:18;97137.28;;;19.32;90.63
39769;BME280;38939;47.824;14.642;2022-07-05T05:24:20;97139.69;;;19.33;90.34
39769;BME280;38939;47.824;14.642;2022-07-05T05:25:23;97141.28;;;19.34;90.34
39769;BME280;38939;47.824;14.642;2022-07-05T05:26:25;97138.09;;;19.32;90.57